Time;durP1;ratioP1;P1;durP2;ratioP2;P2;SDS_P1;SDS_P2;PMS_P1;PMS_P2;Temp;Humidity;BMP_temperature;BMP_pressure;BME280_temperature;BME280_humidity;BME280_pressure;Samples;Min_cycle;Max_cycle;Signal;HPM_P1;HPM_P2
2022/09/09 00:01:20;;;;;;;7.10;2.88;;;;;;;13.41;100.00;99817.25;5041141;28;20029;-73
2022/09/09 00:04:12;;;;;;;6.05;1.95;;;;;;;13.35;100.00;99804.47;5036494;28;20075;-73
2022/09/09 00:06:57;;;;;;;4.88;2.33;;;;;;;13.36;100.00;99813.25;5037471;28;20116;-73
2022/09/09 00:09:27;;;;;;;7.40;2.53;;;;;;;13.31;100.00;99810.94;5033103;28;20161;-74
2022/09/09 00:12:03;;;;;;;5.00;2.45;;;;;;;13.31;100.00;99805.66;5040824;28;20090;-73
2022/09/09 00:14:48;;;;;;;11.52;2.70;;;;;;;13.27;100.00;99799.78;5035929;28;20033;-73
2022/09/09 00:17:31;;;;;;;7.50;3.15;;;;;;;13.30;100.00;99804.81;5038504;28;20028;-73
2022/09/09 00:20:01;;;;;;;9.05;2.38;;;;;;;13.31;100.00;99810.94;5029221;28;20052;-74
2022/09/09 00:22:30;;;;;;;6.20;2.53;;;;;;;13.21;100.00;99781.72;5040153;28;20037;-74
2022/09/09 00:25:10;;;;;;;8.55;2.83;;;;;;;13.26;100.00;99795.44;5036647;28;20484;-74
2022/09/09 00:27:47;;;;;;;5.75;2.90;;;;;;;13.27;100.00;99797.13;5020687;28;20036;-72
2022/09/09 00:30:22;;;;;;;6.03;3.15;;;;;;;13.26;100.00;99787.50;5029348;28;20033;-72
2022/09/09 00:32:50;;;;;;;5.45;2.50;;;;;;;13.22;100.00;99791.31;5038385;28;20051;-73
2022/09/09 00:35:29;;;;;;;4.90;2.17;;;;;;;13.26;100.00;99797.22;5037887;28;20561;-73
2022/09/09 00:37:57;;;;;;;12.10;3.10;;;;;;;13.06;100.00;99756.41;5036192;28;20041;-74
2022/09/09 00:40:34;;;;;;;4.75;2.38;;;;;;;13.21;100.00;99783.53;5027957;28;20082;-74
2022/09/09 00:43:16;;;;;;;5.35;2.63;;;;;;;13.19;100.00;99786.25;5027640;28;20079;-74
2022/09/09 00:46:22;;;;;;;7.90;2.83;;;;;;;13.09;100.00;99769.41;5037953;28;20562;-75
2022/09/09 00:49:04;;;;;;;10.43;2.95;;;;;;;13.19;100.00;99780.97;5039567;28;20048;-75
2022/09/09 00:51:52;;;;;;;10.23;3.05;;;;;;;13.16;100.00;99775.94;5026277;28;20033;-75
2022/09/09 00:54:35;;;;;;;5.25;2.15;;;;;;;13.15;100.00;99782.16;5037686;28;20061;-75
2022/09/09 00:57:07;;;;;;;7.50;2.22;;;;;;;13.14;100.00;99779.63;5037894;28;20088;-75
2022/09/09 01:00:12;;;;;;;4.82;2.55;;;;;;;13.09;100.00;99790.50;5038969;28;20044;-74
2022/09/09 01:03:12;;;;;;;4.45;2.60;;;;;;;13.09;100.00;99785.22;5036700;28;20052;-74
2022/09/09 01:05:59;;;;;;;7.68;2.95;;;;;;;13.07;100.00;99781.84;5036746;28;20499;-75
2022/09/09 01:08:39;;;;;;;8.05;2.42;;;;;;;13.06;100.00;99788.03;5037131;28;20037;-75
2022/09/09 01:11:06;;;;;;;7.57;3.35;;;;;;;13.03;100.00;99771.59;5040365;28;20853;-75
2022/09/09 01:13:34;;;;;;;5.50;2.65;;;;;;;13.02;100.00;99780.44;5037145;28;20033;-74
2022/09/09 01:16:03;;;;;;;7.13;2.83;;;;;;;13.01;100.00;99766.41;5038164;28;20033;-74
2022/09/09 01:18:49;;;;;;;7.70;2.95;;;;;;;12.99;100.00;99768.31;5038213;28;20053;-73
2022/09/09 01:21:20;;;;;;;6.30;2.92;;;;;;;13.02;100.00;99762.84;5039879;28;20029;-73
2022/09/09 01:24:13;;;;;;;6.38;2.95;;;;;;;12.99;100.00;99757.78;5038073;28;20029;-73
2022/09/09 01:26:43;;;;;;;5.57;3.22;;;;;;;12.98;100.00;99761.34;5038970;28;20161;-73
2022/09/09 01:29:11;;;;;;;5.50;2.63;;;;;;;12.93;100.00;99763.50;5040145;28;20056;-73
2022/09/09 01:31:43;;;;;;;7.03;2.88;;;;;;;12.93;100.00;99763.50;5041452;28;20033;-73
2022/09/09 01:34:13;;;;;;;7.90;2.95;;;;;;;12.90;100.00;99773.41;5042597;28;20043;-73
2022/09/09 01:36:41;;;;;;;6.07;3.38;;;;;;;12.92;100.00;99774.97;5036170;28;20082;-73
2022/09/09 01:39:06;;;;;;;6.40;3.30;;;;;;;12.69;100.00;99738.81;5048811;28;20025;-73
2022/09/09 01:41:32;;;;;;;5.32;3.00;;;;;;;12.91;100.00;99777.72;5036504;28;20749;-74
2022/09/09 01:43:57;;;;;;;7.25;2.75;;;;;;;12.87;100.00;99771.84;5048570;28;20033;-74
2022/09/09 01:46:23;;;;;;;5.13;3.13;;;;;;;12.94;100.00;99774.88;5038791;28;20806;-74
2022/09/09 01:48:51;;;;;;;7.53;3.20;;;;;;;12.91;100.00;99775.09;5041802;28;20060;-74
2022/09/09 01:51:16;;;;;;;5.20;2.72;;;;;;;12.92;100.00;99771.50;5038533;28;20117;-74
2022/09/09 01:53:43;;;;;;;7.35;2.95;;;;;;;12.94;100.00;99781.00;5028689;28;20030;-74
2022/09/09 01:56:30;;;;;;;7.63;3.28;;;;;;;12.84;100.00;99753.59;5035152;28;20043;-74
2022/09/09 01:59:17;;;;;;;7.53;3.10;;;;;;;12.96;100.00;99763.28;5040683;28;20041;-74
2022/09/09 02:02:31;;;;;;;5.95;3.22;;;;;;;12.96;100.00;99767.69;5027530;28;20024;-74
2022/09/09 02:05:15;;;;;;;12.32;3.42;;;;;;;12.94;100.00;99773.09;5020727;28;20036;-74
2022/09/09 02:07:48;;;;;;;7.07;3.03;;;;;;;12.95;100.00;99766.00;5029782;28;20103;-74
2022/09/09 02:11:02;;;;;;;12.27;3.28;;;;;;;12.95;100.00;99760.72;5037147;28;20270;-74
2022/09/09 02:13:29;;;;;;;5.57;3.05;;;;;;;12.94;100.00;99757.28;5015017;28;20141;-74
2022/09/09 02:16:16;;;;;;;11.55;3.40;;;;;;;12.95;100.00;99758.94;5004940;28;20041;-74
2022/09/09 02:18:55;;;;;;;9.30;3.65;;;;;;;12.95;100.00;99753.66;5024262;28;20586;-74
2022/09/09 02:21:22;;;;;;;14.75;3.67;;;;;;;12.88;100.00;99738.38;5036579;28;20056;-74
2022/09/09 02:23:51;;;;;;;6.82;3.40;;;;;;;12.84;100.00;99736.94;5043187;28;20840;-74
2022/09/09 02:26:21;;;;;;;7.95;3.95;;;;;;;12.91;100.00;99749.53;5039445;28;20548;-74
2022/09/09 02:28:48;;;;;;;10.95;3.08;;;;;;;12.89;100.00;99755.88;5046939;28;20789;-74
2022/09/09 02:31:17;;;;;;;6.97;3.15;;;;;;;12.92;100.00;99750.41;5033746;28;20078;-74
2022/09/09 02:33:48;;;;;;;5.85;2.97;;;;;;;12.92;100.00;99753.88;5034971;28;20029;-74
2022/09/09 02:36:16;;;;;;;7.95;3.25;;;;;;;12.91;100.00;99749.53;5017411;28;20041;-73
2022/09/09 02:38:45;;;;;;;10.95;3.25;;;;;;;12.97;100.00;99751.78;5030943;28;20063;-73
2022/09/09 02:41:13;;;;;;;6.55;2.95;;;;;;;13.00;100.00;99742.81;5032844;28;20029;-73
2022/09/09 02:43:45;;;;;;;7.38;3.55;;;;;;;13.01;100.00;99739.22;5020549;28;20036;-74
2022/09/09 02:46:22;;;;;;;8.23;2.88;;;;;;;13.03;100.00;99738.16;5040640;28;20095;-74
2022/09/09 02:48:48;;;;;;;8.52;2.90;;;;;;;13.05;100.00;99741.50;5027643;28;20091;-73
2022/09/09 02:51:20;;;;;;;9.23;3.40;;;;;;;13.03;100.00;99729.41;5026447;28;20026;-74
2022/09/09 02:54:13;;;;;;;8.50;3.70;;;;;;;12.91;100.00;99704.72;5022330;28;20032;-74
2022/09/09 02:56:42;;;;;;;8.13;3.40;;;;;;;13.03;100.00;99732.88;5035215;28;20502;-73
2022/09/09 02:59:07;;;;;;;6.18;2.63;;;;;;;13.03;100.00;99730.25;5037927;28;20043;-74
2022/09/09 03:01:33;;;;;;;9.70;3.47;;;;;;;13.02;100.00;99738.25;5038928;28;20387;-74
2022/09/09 03:03:58;;;;;;;9.98;3.03;;;;;;;13.03;100.00;99732.88;5039226;28;20024;-74
2022/09/09 03:06:23;;;;;;;11.18;3.45;;;;;;;12.92;100.00;99714.31;5037783;28;20057;-74
2022/09/09 03:08:49;;;;;;;8.98;3.08;;;;;;;12.96;100.00;99714.94;5039183;28;20136;-73
2022/09/09 03:11:15;;;;;;;11.98;3.55;;;;;;;12.96;100.00;99731.63;5039030;28;20444;-74
2022/09/09 03:13:41;;;;;;;7.43;3.63;;;;;;;13.03;100.00;99732.88;5038917;28;20033;-74
2022/09/09 03:16:06;;;;;;;7.50;3.38;;;;;;;12.88;100.00;99709.38;5038988;28;20025;-74
2022/09/09 03:18:32;;;;;;;8.15;3.63;;;;;;;13.06;100.00;99739.72;5027698;28;20828;-74
2022/09/09 03:20:59;;;;;;;10.90;4.30;;;;;;;12.98;100.00;99732.34;5032828;28;20143;-74
2022/09/09 03:23:24;;;;;;;11.50;3.35;;;;;;;13.04;100.00;99745.13;5026638;28;20521;-74
2022/09/09 03:25:51;;;;;;;14.02;3.78;;;;;;;13.09;100.00;99748.28;5026023;28;20037;-75
2022/09/09 03:28:17;;;;;;;6.55;3.60;;;;;;;13.08;100.00;99746.56;5050647;28;20479;-75
2022/09/09 03:30:42;;;;;;;11.57;4.15;;;;;;;12.98;100.00;99729.72;5037108;28;20048;-75
2022/09/09 03:33:07;;;;;;;7.40;3.28;;;;;;;13.13;100.00;99744.50;5037606;28;20854;-75
2022/09/09 03:35:33;;;;;;;10.88;3.40;;;;;;;13.11;100.00;99746.38;5030915;28;20047;-75
2022/09/09 03:37:58;;;;;;;6.72;3.33;;;;;;;13.11;100.00;99745.56;5036273;28;20121;-75
2022/09/09 03:40:23;;;;;;;8.10;3.35;;;;;;;13.01;100.00;99729.47;5036979;28;20053;-75
2022/09/09 03:42:49;;;;;;;13.88;4.25;;;;;;;12.99;100.00;99718.22;5026272;28;20073;-76
2022/09/09 03:45:14;;;;;;;9.52;4.28;;;;;;;13.08;100.00;99730.75;5024433;28;20025;-75
2022/09/09 03:47:40;;;;;;;9.50;3.20;;;;;;;13.25;100.00;99746.25;5037872;28;20087;-74
2022/09/09 03:50:08;;;;;;;8.85;3.88;;;;;;;13.30;100.00;99749.41;5039125;28;20047;-75
2022/09/09 03:52:38;;;;;;;8.20;3.55;;;;;;;13.36;100.00;99747.28;5020598;28;20614;-75
2022/09/09 03:55:04;;;;;;;9.50;3.78;;;;;;;13.41;100.00;99742.53;5023994;28;20025;-75
2022/09/09 03:57:30;;;;;;;16.80;4.85;;;;;;;13.27;100.00;99723.25;5036171;28;20112;-75
2022/09/09 03:59:55;;;;;;;18.83;4.20;;;;;;;13.46;100.00;99746.50;5051236;28;20043;-75
2022/09/09 04:02:21;;;;;;;14.05;4.07;;;;;;;13.50;100.00;99741.84;5025495;28;20061;-75
2022/09/09 04:04:46;;;;;;;17.17;5.07;;;;;;;13.52;100.00;99745.22;5047061;28;20025;-75
2022/09/09 04:07:12;;;;;;;11.20;5.10;;;;;;;13.53;100.00;99741.63;5050546;28;20699;-75
2022/09/09 04:09:37;;;;;;;10.25;3.90;;;;;;;13.59;100.00;99744.66;5034571;28;20486;-75
2022/09/09 04:12:03;;;;;;;14.40;4.35;;;;;;;13.56;100.00;99736.09;5042128;28;20037;-75
2022/09/09 04:14:29;;;;;;;13.65;4.68;;;;;;;13.53;100.00;99731.06;5056312;28;20036;-75
2022/09/09 04:16:55;;;;;;;8.77;4.28;;;;;;;13.63;100.00;99742.63;5045686;28;20041;-75
2022/09/09 04:19:21;;;;;;;11.35;4.45;;;;;;;13.56;100.00;99730.84;5036743;28;20141;-75
2022/09/09 04:21:48;;;;;;;14.38;5.50;;;;;;;13.64;100.00;99729.34;5039190;28;20467;-75
2022/09/09 04:24:16;;;;;;;14.80;4.93;;;;;;;13.63;100.00;99727.63;5038860;28;20037;-75
2022/09/09 04:26:42;;;;;;;9.13;4.60;;;;;;;13.61;100.00;99734.00;5039846;28;20491;-75
2022/09/09 04:29:07;;;;;;;12.38;5.28;;;;;;;13.62;100.00;99727.78;5038530;28;20051;-75
2022/09/09 04:31:33;;;;;;;10.60;4.47;;;;;;;13.37;100.00;99698.81;5043944;28;20174;-75
2022/09/09 04:34:02;;;;;;;12.15;4.00;;;;;;;13.54;100.00;99725.69;5042485;28;20021;-76
2022/09/09 04:36:27;;;;;;;8.75;3.97;;;;;;;13.50;100.00;99732.13;5039385;28;20071;-76
2022/09/09 04:38:53;;;;;;;8.02;3.88;;;;;;;13.51;100.00;99727.69;5018792;28;20033;-75
2022/09/09 04:41:18;;;;;;;12.25;5.05;;;;;;;13.40;100.00;99710.00;5044641;28;20050;-75
2022/09/09 04:43:43;;;;;;;11.68;4.80;;;;;;;13.39;100.00;99715.38;5043870;28;20430;-75
2022/09/09 04:46:09;;;;;;;8.35;4.10;;;;;;;13.37;100.00;99715.50;5043516;28;20043;-75
2022/09/09 04:48:34;;;;;;;13.77;4.32;;;;;;;13.40;100.00;99719.72;5044026;28;20788;-75
2022/09/09 04:51:04;;;;;;;9.93;4.15;;;;;;;13.42;100.00;99729.19;5046487;28;20030;-75
2022/09/09 04:53:30;;;;;;;9.02;3.40;;;;;;;13.18;100.00;99697.50;5058364;28;20032;-76
2022/09/09 04:56:12;;;;;;;8.82;4.45;;;;;;;13.37;100.00;99726.06;5046648;28;20039;-75
2022/09/09 04:58:39;;;;;;;7.40;4.18;;;;;;;13.35;100.00;99721.84;5048727;28;20093;-75
2022/09/09 05:01:06;;;;;;;7.38;4.00;;;;;;;13.31;100.00;99716.78;5037894;28;20140;-77
2022/09/09 05:03:32;;;;;;;9.70;3.47;;;;;;;13.35;100.00;99727.13;5049068;28;20056;-75
2022/09/09 05:06:04;;;;;;;11.23;4.43;;;;;;;13.35;100.00;99716.59;5044471;28;20028;-75
2022/09/09 05:08:30;;;;;;;13.65;4.65;;;;;;;13.40;100.00;99725.00;5040164;28;20044;-75
2022/09/09 05:10:55;;;;;;;10.23;4.45;;;;;;;13.45;100.00;99733.44;5039779;28;20087;-75
2022/09/09 05:13:22;;;;;;;18.73;4.57;;;;;;;13.46;100.00;99735.94;5052384;28;20108;-75
2022/09/09 05:15:54;;;;;;;12.02;4.97;;;;;;;13.41;100.00;99716.13;5041581;28;20060;-75
2022/09/09 05:18:20;;;;;;;9.65;4.95;;;;;;;13.44;100.00;99724.66;5040553;28;20063;-75
2022/09/09 05:20:45;;;;;;;13.57;4.68;;;;;;;13.42;100.00;99720.47;5040523;28;20043;-76
2022/09/09 05:23:13;;;;;;;7.70;3.58;;;;;;;13.32;100.00;99713.19;5021803;28;20031;-75
2022/09/09 05:25:40;;;;;;;12.60;4.80;;;;;;;13.48;100.00;99727.94;5015670;28;20417;-76
2022/09/09 05:28:07;;;;;;;13.65;4.88;;;;;;;13.29;100.00;99704.66;5019271;28;20071;-76
2022/09/09 05:30:32;;;;;;;11.00;4.38;;;;;;;13.50;100.00;99733.94;5013394;28;20017;-76
2022/09/09 05:32:58;;;;;;;8.43;4.40;;;;;;;13.49;100.00;99742.78;5013855;28;20110;-77
2022/09/09 05:35:23;;;;;;;13.27;4.95;;;;;;;13.50;100.00;99734.78;5011685;28;20909;-76
2022/09/09 05:37:48;;;;;;;13.55;4.20;;;;;;;13.52;100.00;99732.03;5015444;28;20075;-76
2022/09/09 05:40:14;;;;;;;11.85;4.75;;;;;;;13.54;100.00;99735.38;5010963;28;20056;-76
2022/09/09 05:42:40;;;;;;;10.73;4.47;;;;;;;13.56;100.00;99736.97;5008254;28;20131;-74
2022/09/09 05:45:07;;;;;;;13.55;5.15;;;;;;;13.54;100.00;99727.47;5018328;28;20036;-75
2022/09/09 05:47:33;;;;;;;15.20;4.78;;;;;;;13.59;100.00;99734.09;5057564;28;20060;-74
2022/09/09 05:49:58;;;;;;;15.82;5.65;;;;;;;13.69;100.00;99744.81;5024178;28;20914;-75
2022/09/09 05:52:26;;;;;;;11.25;5.25;;;;;;;13.62;100.00;99725.13;5019632;28;20898;-76
2022/09/09 05:54:51;;;;;;;12.32;4.53;;;;;;;13.67;100.00;99730.91;5016654;28;20028;-79
2022/09/09 05:57:17;;;;;;;19.05;5.78;;;;;;;13.70;100.00;99734.16;5015994;28;20105;-76
2022/09/09 05:59:42;;;;;;;15.48;5.25;;;;;;;13.82;100.00;99745.63;5016877;28;20074;-75
2022/09/09 06:02:08;;;;;;;14.95;4.85;;;;;;;13.66;100.00;99723.91;4999789;28;20250;-79
2022/09/09 06:04:34;;;;;;;14.77;5.43;;;;;;;13.72;100.00;99731.41;5015290;28;20056;-75
2022/09/09 06:07:00;;;;;;;16.38;4.78;;;;;;;13.89;100.00;99754.75;5012390;28;20027;-75
2022/09/09 06:09:25;;;;;;;14.93;5.95;;;;;;;13.87;100.00;99743.47;5011597;28;20119;-75
2022/09/09 06:11:50;;;;;;;12.68;5.30;;;;;;;13.97;100.00;99747.13;5022010;28;20093;-75
2022/09/09 06:14:17;;;;;;;12.07;4.70;;;;;;;13.93;100.00;99745.66;5022108;28;20032;-76
2022/09/09 06:16:43;;;;;;;12.00;4.85;;;;;;;13.81;100.00;99718.38;5020626;28;20147;-75
2022/09/09 06:19:09;;;;;;;11.73;4.60;;;;;;;13.99;100.00;99753.09;5015615;28;20029;-75
2022/09/09 06:21:36;;;;;;;14.00;4.97;;;;;;;14.01;100.00;99748.56;5028212;28;20032;-77
2022/09/09 06:24:03;;;;;;;14.55;4.57;;;;;;;13.96;100.00;99740.13;5033477;28;20090;-75
2022/09/09 06:26:34;;;;;;;14.05;4.43;;;;;;;13.99;100.00;99744.38;5034324;28;20025;-76
2022/09/09 06:29:00;;;;;;;11.63;5.28;;;;;;;13.90;100.00;99723.91;5038030;28;20041;-76
2022/09/09 06:31:30;;;;;;;15.63;5.30;;;;;;;14.03;100.00;99740.50;5044732;28;20040;-75
2022/09/09 06:33:56;;;;;;;12.27;5.10;;;;;;;14.14;100.00;99737.91;5036155;28;20033;-75
2022/09/09 06:36:26;;;;;;;11.93;5.32;;;;;;;14.15;100.00;99735.19;5018238;28;20028;-75
2022/09/09 06:38:52;;;;;;;17.10;4.78;;;;;;;14.20;100.00;99737.44;5011794;28;20033;-75
2022/09/09 06:41:19;;;;;;;15.05;4.35;;;;;;;14.26;100.00;99740.47;5010050;28;20180;-75
2022/09/09 06:43:45;;;;;;;15.88;5.07;;;;;;;14.19;100.00;99720.75;5027692;28;20029;-74
2022/09/09 06:46:22;;;;;;;9.23;4.60;;;;;;;14.29;100.00;99734.97;5042734;28;20060;-74
2022/09/09 06:48:47;;;;;;;11.52;5.18;;;;;;;14.30;100.00;99728.72;5024555;28;20029;-75
2022/09/09 06:51:16;;;;;;;11.68;4.88;;;;;;;14.35;100.00;99727.56;5041785;28;20039;-75
2022/09/09 06:53:42;;;;;;;9.40;4.60;;;;;;;14.40;100.00;99726.25;5055923;28;20570;-75
2022/09/09 06:56:11;;;;;;;15.23;5.05;;;;;;;14.33;100.00;99715.28;5024659;28;20021;-75
2022/09/09 06:58:46;;;;;;;11.93;4.57;;;;;;;14.40;100.00;99726.25;5042307;28;20504;-75
2022/09/09 07:01:23;;;;;;;12.20;4.60;;;;;;;14.39;100.00;99723.72;5030777;28;20036;-74
2022/09/09 07:03:54;;;;;;;9.98;4.43;;;;;;;14.28;100.00;99703.38;5040937;28;20568;-75
2022/09/09 07:06:28;;;;;;;11.77;5.13;;;;;;;14.37;100.00;99729.13;5039081;28;20037;-74
2022/09/09 07:09:04;;;;;;;8.70;4.07;;;;;;;14.39;100.00;99726.38;5042051;28;20679;-73
2022/09/09 07:11:32;;;;;;;13.95;4.13;;;;;;;14.40;100.00;99722.78;5044552;28;20466;-73
2022/09/09 07:13:58;;;;;;;10.05;4.28;;;;;;;14.43;100.00;99723.34;5041211;28;20028;-73
2022/09/09 07:16:24;;;;;;;14.57;4.20;;;;;;;14.48;100.00;99715.94;5032778;28;20028;-73
2022/09/09 07:18:50;;;;;;;10.05;4.22;;;;;;;14.59;100.00;99717.75;5038251;28;20861;-72
2022/09/09 07:21:17;;;;;;;16.38;4.80;;;;;;;14.72;100.00;99721.13;5040139;28;20036;-73
2022/09/09 07:23:43;;;;;;;11.15;4.30;;;;;;;14.85;100.00;99705.97;5042279;28;20103;-73
2022/09/09 07:26:13;;;;;;;10.07;4.07;;;;;;;15.02;100.00;99713.41;5035809;28;20503;-73
2022/09/09 07:28:39;;;;;;;6.45;3.75;;;;;;;15.14;100.00;99715.06;5035119;28;20029;-74
2022/09/09 07:31:05;;;;;;;9.77;4.00;;;;;;;15.21;100.00;99715.41;5043348;28;20085;-73
2022/09/09 07:33:33;;;;;;;11.23;3.55;;;;;;;15.19;100.00;99718.22;5042480;28;20029;-73
2022/09/09 07:36:25;;;;;;;12.00;3.13;;;;;;;14.86;100.00;99667.97;5044077;28;20181;-73
2022/09/09 07:39:02;;;;;;;9.20;3.78;;;;;;;15.04;100.00;99703.53;5043422;28;20029;-74
2022/09/09 07:41:28;;;;;;;8.27;2.97;;;;;;;15.12;100.00;99722.31;5042315;28;20029;-74
2022/09/09 07:43:53;;;;;;;11.45;3.65;;;;;;;15.08;100.00;99720.84;5040105;28;20468;-74
2022/09/09 07:46:21;;;;;;;10.90;3.25;;;;;;;15.03;100.00;99725.69;5042265;28;20107;-75
2022/09/09 07:48:51;;;;;;;9.05;3.13;;;;;;;15.05;100.00;99729.03;5043141;28;20025;-74
2022/09/09 07:51:19;;;;;;;7.07;3.10;;;;;;;14.98;100.00;99704.03;5044175;28;20028;-75
2022/09/09 07:53:45;;;;;;;8.32;3.38;;;;;;;15.12;100.00;99732.03;5041227;28;20033;-74
2022/09/09 07:56:14;;;;;;;8.35;3.13;;;;;;;15.19;100.00;99728.78;5040577;28;20495;-75
2022/09/09 07:58:40;;;;;;;7.93;3.38;;;;;;;15.23;100.00;99735.53;5040430;28;20039;-75
2022/09/09 08:01:38;;;;;;;8.05;3.53;;;;;;;15.24;100.00;99726.59;5042078;28;20407;-75
2022/09/09 08:04:06;;;;;;;8.57;2.97;;;;;;;15.01;100.00;99682.63;5021321;28;20140;-74
2022/09/09 08:06:35;;;;;;;15.63;3.72;;;;;;;15.32;100.00;99716.25;5046607;28;20057;-73
2022/09/09 08:09:01;;;;;;;9.35;3.30;;;;;;;15.50;100.00;99731.66;5059001;28;20478;-73
2022/09/09 08:11:27;;;;;;;7.25;2.65;;;;;;;15.61;100.00;99723.69;5047357;28;20062;-72
2022/09/09 08:13:54;;;;;;;8.18;3.17;;;;;;;15.57;100.00;99712.50;5049972;28;20111;-73
2022/09/09 08:16:25;;;;;;;8.88;2.95;;;;;;;15.88;100.00;99739.97;5061902;28;20123;-72
2022/09/09 08:18:51;;;;;;;8.38;2.95;;;;;;;15.93;100.00;99734.25;5046885;28;20087;-72
2022/09/09 08:21:20;;;;;;;7.00;2.83;;;;;;;15.72;100.00;99700.63;5058554;28;20021;-74
2022/09/09 08:23:47;;;;;;;7.97;2.55;;;;;;;16.02;100.00;99738.81;5057640;28;20067;-75
2022/09/09 08:26:13;;;;;;;8.55;3.25;;;;;;;15.99;100.00;99749.66;5045626;28;20032;-74
2022/09/09 08:28:39;;;;;;;10.95;3.00;;;;;;;16.05;100.00;99734.09;5053712;28;20507;-73
2022/09/09 08:31:09;;;;;;;7.47;2.60;;;;;;;15.97;100.00;99711.84;5058512;28;20573;-74
2022/09/09 08:33:37;;;;;;;11.82;2.53;;;;;;;16.19;100.00;99736.41;5026985;28;20029;-74
2022/09/09 08:36:02;;;;;;;7.97;2.65;;;;;;;16.26;100.00;99763.25;5044211;28;20127;-70
2022/09/09 08:38:28;;;;;;;15.32;3.47;;;;;;;16.16;100.00;99762.34;5038846;28;20081;-73
2022/09/09 08:41:02;;;;;;;5.78;2.53;;;;;;;15.97;100.00;99752.44;5038129;28;20037;-73
2022/09/09 08:43:28;;;;;;;7.10;2.58;;;;;;;15.80;100.00;99732.63;5037806;28;20033;-73
2022/09/09 08:46:04;;;;;;;5.93;2.63;;;;;;;15.94;100.00;99765.94;5039826;28;20166;-74
2022/09/09 08:48:43;;;;;;;6.53;2.72;;;;;;;15.82;100.00;99743.09;5021684;28;20775;-73
2022/09/09 08:51:09;;;;;;;8.32;2.40;;;;;;;15.76;100.00;99754.19;5045986;28;20033;-73
2022/09/09 08:53:42;;;;;;;4.97;2.15;;;;;;;15.81;100.00;99767.94;5012564;28;20072;-74
2022/09/09 08:56:14;;;;;;;7.68;2.88;;;;;;;15.79;100.00;99764.53;5021345;28;20028;-71
2022/09/09 08:58:48;;;;;;;8.23;2.88;;;;;;;15.73;100.00;99768.53;5009905;28;20075;-72
2022/09/09 09:01:40;;;;;;;8.52;3.08;;;;;;;15.73;100.00;99775.66;5007783;28;20135;-72
2022/09/09 09:04:30;;;;;;;7.60;2.40;;;;;;;15.74;100.00;99772.03;5016751;28;20041;-73
2022/09/09 09:07:17;;;;;;;6.97;2.88;;;;;;;15.77;100.00;99779.72;5018480;28;20052;-73
2022/09/09 09:09:58;;;;;;;8.13;2.65;;;;;;;15.86;100.00;99778.97;5018847;28;20048;-73
2022/09/09 09:12:26;;;;;;;6.95;2.53;;;;;;;15.90;100.00;99766.31;5020839;28;21117;-72
2022/09/09 09:14:51;;;;;;;5.68;2.70;;;;;;;15.88;100.00;99758.50;5016111;28;20029;-73
2022/09/09 09:17:19;;;;;;;11.73;2.42;;;;;;;16.00;100.00;99780.50;5014405;28;20036;-72
2022/09/09 09:19:46;;;;;;;12.90;3.28;;;;;;;15.94;100.00;99763.28;5015713;28;20063;-74
2022/09/09 09:22:33;;;;;;;11.95;3.08;;;;;;;15.96;100.00;99793.16;5018388;28;20036;-73
2022/09/09 09:25:21;;;;;;;7.72;2.90;;;;;;;15.89;100.00;99786.66;5005703;28;20870;-72
2022/09/09 09:28:01;;;;;;;6.03;3.08;;;;;;;15.86;100.00;99792.22;5014795;28;20028;-73
2022/09/09 09:30:30;;;;;;;8.18;3.03;;;;;;;15.63;100.00;99759.66;5001800;28;20032;-73
2022/09/09 09:33:00;;;;;;;7.72;2.35;;;;;;;15.83;100.00;99792.47;5019871;28;20919;-73
2022/09/09 09:35:25;;;;;;;7.60;2.95;;;;;;;15.85;100.00;99796.69;5002132;28;20025;-72
2022/09/09 09:37:51;;;;;;;6.85;2.42;;;;;;;15.94;100.00;99784.50;5014634;28;21533;-73
2022/09/09 09:40:19;;;;;;;10.02;2.63;;;;;;;16.00;100.00;99784.00;5019791;28;20032;-73
2022/09/09 09:42:51;;;;;;;7.78;2.95;;;;;;;16.06;100.00;99783.47;5018155;28;20028;-74
2022/09/09 09:45:47;;;;;;;9.00;2.83;;;;;;;16.20;100.00;99788.47;5018918;28;20028;-74
2022/09/09 09:48:13;;;;;;;9.02;2.67;;;;;;;16.26;100.00;99795.91;5021925;28;20223;-72
2022/09/09 09:51:00;;;;;;;5.18;2.00;;;;;;;16.19;100.00;99796.53;5011188;28;20033;-72
2022/09/09 09:53:27;;;;;;;8.13;3.10;;;;;;;15.89;100.00;99801.72;5019437;28;20036;-71
2022/09/09 09:55:59;;;;;;;7.07;2.42;;;;;;;15.46;100.00;99805.16;5017611;28;20136;-72
2022/09/09 09:58:26;;;;;;;8.77;2.83;;;;;;;15.12;100.00;99796.41;5016630;28;20088;-74
2022/09/09 10:00:53;;;;;;;4.82;2.42;;;;;;;14.94;100.00;99786.44;5028351;28;20029;-74
2022/09/09 10:03:30;;;;;;;9.30;3.55;;;;;;;14.50;100.00;99729.03;5014862;28;20087;-73
2022/09/09 10:05:56;;;;;;;8.40;2.92;;;;;;;14.67;100.00;99753.19;5013034;28;20091;-74
2022/09/09 10:08:23;;;;;;;8.57;2.80;;;;;;;14.86;100.00;99781.72;5008007;28;20888;-73
2022/09/09 10:11:10;;;;;;;8.63;2.60;;;;;;;14.86;100.00;99784.38;5020463;28;20090;-72
2022/09/09 10:13:54;;;;;;;11.52;2.60;;;;;;;14.86;100.00;99781.72;5022322;28;20197;-72
2022/09/09 10:16:36;;;;;;;8.05;3.35;;;;;;;14.81;100.00;99775.94;5021559;28;20032;-73
2022/09/09 10:19:06;;;;;;;12.32;3.38;;;;;;;14.78;100.00;99777.03;5027654;28;20794;-72
2022/09/09 10:22:06;;;;;;;9.73;2.53;;;;;;;14.82;100.00;99775.81;5023517;28;20033;-72
2022/09/09 10:24:49;;;;;;;6.45;2.53;;;;;;;14.96;100.00;99784.50;5019519;28;20110;-73
2022/09/09 10:27:49;;;;;;;7.18;2.90;;;;;;;15.02;100.00;99787.50;5007881;28;20358;-73
2022/09/09 10:30:25;;;;;;;7.50;2.83;;;;;;;15.09;100.00;99786.06;5020463;28;20029;-72
2022/09/09 10:33:09;;;;;;;5.78;2.60;;;;;;;15.10;100.00;99787.75;5002976;28;20044;-72
2022/09/09 10:35:45;;;;;;;11.13;2.60;;;;;;;15.02;100.00;99782.22;5012035;28;20045;-73
2022/09/09 10:38:25;;;;;;;5.15;2.63;;;;;;;14.89;100.00;99778.00;5016640;28;20033;-73
2022/09/09 10:40:56;;;;;;;10.50;2.83;;;;;;;14.81;100.00;99781.22;5009919;28;20091;-73
2022/09/09 10:43:34;;;;;;;6.47;2.30;;;;;;;14.79;100.00;99778.72;5018732;28;20032;-74
2022/09/09 10:46:08;;;;;;;8.23;3.47;;;;;;;14.82;100.00;99774.97;5012358;28;20194;-73
2022/09/09 10:49:09;;;;;;;6.15;2.72;;;;;;;14.87;100.00;99774.63;5012823;28;20045;-73
2022/09/09 10:51:56;;;;;;;6.78;3.47;;;;;;;14.83;100.00;99789.91;4992018;28;20052;-74
2022/09/09 10:54:25;;;;;;;11.13;3.78;;;;;;;14.65;100.00;99786.00;4990964;28;20041;-80
2022/09/09 10:56:58;;;;;;;6.18;3.50;;;;;;;14.37;100.00;99750.25;5012679;28;20807;-78
2022/09/09 10:59:31;;;;;;;6.20;3.88;;;;;;;14.55;100.00;99785.88;5010793;28;20020;-79
2022/09/09 11:02:01;;;;;;;10.95;4.22;;;;;;;14.65;100.00;99801.88;5006609;28;20067;-76
2022/09/09 11:04:39;;;;;;;10.77;3.95;;;;;;;14.63;100.00;99809.09;5012728;28;20143;-78
2022/09/09 11:07:08;;;;;;;8.98;4.65;;;;;;;14.60;100.00;99793.47;5017553;28;20135;-77
2022/09/09 11:09:38;;;;;;;13.73;5.10;;;;;;;14.41;100.00;99751.72;5003512;28;20087;-77
2022/09/09 11:12:05;;;;;;;11.40;4.78;;;;;;;14.75;100.00;99792.28;5016049;28;20035;-75
2022/09/09 11:14:30;;;;;;;10.43;4.55;;;;;;;14.88;100.00;99800.09;5017833;28;20995;-70
2022/09/09 11:17:02;;;;;;;7.78;4.10;;;;;;;14.94;100.00;99803.13;5009273;28;20108;-76
2022/09/09 11:19:34;;;;;;;17.88;4.88;;;;;;;15.15;100.00;99805.91;5008954;28;20029;-76
2022/09/09 11:22:02;;;;;;;10.85;3.63;;;;;;;15.14;100.00;99783.88;5008353;28;20025;-76
2022/09/09 11:24:33;;;;;;;10.23;3.92;;;;;;;15.34;100.00;99799.03;5009719;28;20840;-76
2022/09/09 11:27:06;;;;;;;7.55;4.45;;;;;;;15.34;100.00;99790.28;5007784;28;20910;-74
2022/09/09 11:29:53;;;;;;;15.50;3.88;;;;;;;15.45;100.00;99792.03;4996818;28;20040;-75
2022/09/09 11:32:34;;;;;;;6.95;3.60;;;;;;;15.62;100.00;99791.56;5011340;28;20028;-75
2022/09/09 11:35:08;;;;;;;8.25;4.07;;;;;;;15.74;100.00;99772.03;5018761;28;20132;-77
2022/09/09 11:37:42;;;;;;;11.50;3.50;;;;;;;15.92;100.00;99790.91;5013669;28;20037;-73
2022/09/09 11:40:07;;;;;;;10.90;3.50;;;;;;;15.96;100.00;99787.84;5001619;28;20037;-74
2022/09/09 11:42:33;;;;;;;10.18;4.28;;;;;;;16.28;100.00;99783.41;5010320;28;20091;-75